createdAt,value
2022-11-20T00:02:05.216Z,130.64665
2022-11-20T00:17:07.676Z,28.76624
2022-11-20T00:32:10.029Z,2.39719
2022-11-20T00:47:12.300Z,0
2022-11-20T01:02:14.714Z,0
2022-11-20T01:17:17.913Z,0
2022-11-20T01:32:20.313Z,0
2022-11-20T01:47:22.714Z,0
2022-11-20T02:02:25.231Z,0
2022-11-20T02:17:27.660Z,0
2022-11-20T02:32:30.737Z,0
2022-11-20T02:47:34.580Z,0
2022-11-20T03:02:37.233Z,0
2022-11-20T03:17:39.936Z,0
2022-11-20T03:32:43.092Z,0
2022-11-20T03:47:45.293Z,0
2022-11-20T04:02:47.681Z,0
2022-11-20T04:17:50.104Z,0
2022-11-20T04:32:52.595Z,0
2022-11-20T04:47:55.119Z,0
2022-11-20T05:02:57.616Z,0
2022-11-20T05:17:59.983Z,0
2022-11-20T05:33:02.854Z,0
2022-11-20T05:48:05.327Z,0
2022-11-20T06:03:07.880Z,0
2022-11-20T06:18:10.380Z,0
2022-11-20T06:33:12.750Z,0
2022-11-20T06:48:15.149Z,0
2022-11-20T07:03:17.428Z,0
2022-11-20T07:18:19.739Z,0
2022-11-20T07:33:22.105Z,0
2022-11-20T07:48:24.416Z,0
2022-11-20T08:03:26.810Z,0
2022-11-20T08:18:31.669Z,0
2022-11-20T08:33:34.804Z,0
2022-11-20T08:48:37.212Z,0
2022-11-20T09:03:39.790Z,0
2022-11-20T09:18:42.202Z,0
2022-11-20T09:33:44.639Z,0
2022-11-20T09:48:47.118Z,0
2022-11-20T10:03:49.574Z,0
2022-11-20T10:18:52.023Z,0
2022-11-20T10:34:11.751Z,0
2022-11-20T10:49:14.824Z,0
2022-11-20T11:04:17.238Z,0
2022-11-20T11:19:19.645Z,0
2022-11-20T11:34:22.088Z,0
2022-11-20T11:49:24.771Z,0
2022-11-20T12:04:27.373Z,0
2022-11-20T12:19:29.680Z,0
2022-11-20T12:34:34.298Z,0
2022-11-20T12:49:37.169Z,0
2022-11-20T13:04:40.858Z,0
2022-11-20T13:34:54.868Z,0
2022-11-20T13:49:57.611Z,0
2022-11-20T14:04:59.940Z,0
2022-11-20T14:20:02.504Z,0
2022-11-20T14:35:05.523Z,1.19859
2022-11-20T14:50:10.102Z,8.39015
2022-11-20T15:05:12.792Z,50.34091
2022-11-20T15:20:15.235Z,164.20726
2022-11-20T15:35:17.645Z,405.12448
2022-11-20T15:50:21.412Z,701.177
2022-11-20T16:05:24.777Z,979.25061
2022-11-20T16:20:28.297Z,1107.50012
2022-11-20T16:35:30.491Z,1435.91455
2022-11-20T16:50:32.664Z,1491.04993
2022-11-20T17:05:35.110Z,1571.35559
2022-11-20T17:20:37.849Z,1806.27991
2022-11-20T17:35:40.474Z,2234.17773
2022-11-20T17:50:49.613Z,2409.17212
2022-11-20T18:05:51.883Z,2920.97144
2022-11-20T18:20:54.342Z,2356.43408
2022-11-20T18:35:56.827Z,2599.74854
2022-11-20T18:50:59.092Z,2901.79395
2022-11-20T19:06:01.953Z,2603.34424
2022-11-20T19:21:04.241Z,2380.40601
2022-11-20T19:36:06.887Z,3260.17334
2022-11-20T19:51:09.359Z,6468.80713
2022-11-20T20:06:12.336Z,5465.58496
2022-11-20T20:21:14.585Z,4958.57959
2022-11-20T20:36:17.132Z,4244.21826
2022-11-20T20:51:19.410Z,3143.90991
2022-11-20T21:06:21.590Z,3740.80908
2022-11-20T21:21:24.011Z,2333.66089
2022-11-20T21:36:26.369Z,2471.49902
2022-11-20T21:51:28.578Z,3955.35742
2022-11-20T22:06:30.920Z,1730.76855
2022-11-20T22:21:33.309Z,1208.18188
2022-11-20T22:36:35.691Z,1011.61261
2022-11-20T22:51:38.025Z,799.46161
2022-11-20T23:06:40.496Z,719.15588
2022-11-20T23:21:42.759Z,510.60068
2022-11-20T23:36:45.005Z,250.50597
2022-11-20T23:51:47.209Z,128.24947
